Terminal Aerodrome Forecast
Issued by NWS

Home | Current Version | Previous Version | Text Only | Print | Product List | Glossary On
Versions: 1 2 3 4 5 6 7 8 9 10 11 12 13
000
FTAK31 PANC 221740
TAFAVD
TAF
PAVD 221740Z 2218/2318 VRB03KT 3SM -SN OVC030
      TEMPO 2218/2220 1SM -SN OVC010
     FM222000 VRB03KT 1SM -SN OVC010
     FM230400 VRB04KT P6SM VCSH SCT010 OVC025
     FM230900 06010KT P6SM SCT025
      AMD LTD TO CLD VIS AND WIND=

USA.gov is the U.S. government's official web portal to all federal, state and local government web resources and services.